sensor_id;sensor_type;location;lat;lon;timestamp;temperature;humidity
8178;DHT22;4130;48.740;9.132;2022-12-11T00:01:16;-3.60;99.90
8178;DHT22;4130;48.740;9.132;2022-12-11T00:03:45;-3.60;99.90
8178;DHT22;4130;48.740;9.132;2022-12-11T00:06:13;-3.60;99.90
8178;DHT22;4130;48.740;9.132;2022-12-11T00:08:41;-3.70;99.90
8178;DHT22;4130;48.740;9.132;2022-12-11T00:11:09;-3.70;99.90
8178;DHT22;4130;48.740;9.132;2022-12-11T00:13:38;-3.70;99.90
8178;DHT22;4130;48.740;9.132;2022-12-11T00:16:06;-3.70;99.90
8178;DHT22;4130;48.740;9.132;2022-12-11T00:18:33;-3.70;99.90
8178;DHT22;4130;48.740;9.132;2022-12-11T00:21:00;-3.70;99.90
8178;DHT22;4130;48.740;9.132;2022-12-11T00:23:27;-3.70;99.90
8178;DHT22;4130;48.740;9.132;2022-12-11T00:25:54;-3.70;99.90
8178;DHT22;4130;48.740;9.132;2022-12-11T00:28:22;-3.70;99.90
8178;DHT22;4130;48.740;9.132;2022-12-11T00:30:50;-3.70;99.90
8178;DHT22;4130;48.740;9.132;2022-12-11T00:33:17;-3.60;99.90
8178;DHT22;4130;48.740;9.132;2022-12-11T00:35:46;-3.60;99.90
8178;DHT22;4130;48.740;9.132;2022-12-11T00:38:14;-3.50;99.90
8178;DHT22;4130;48.740;9.132;2022-12-11T00:40:42;-3.40;99.90
8178;DHT22;4130;48.740;9.132;2022-12-11T00:43:09;-3.40;99.90
8178;DHT22;4130;48.740;9.132;2022-12-11T00:45:36;-3.40;99.90
8178;DHT22;4130;48.740;9.132;2022-12-11T00:48:06;-3.30;99.90
8178;DHT22;4130;48.740;9.132;2022-12-11T00:50:33;-3.20;99.90
8178;DHT22;4130;48.740;9.132;2022-12-11T00:53:00;-3.00;99.90
8178;DHT22;4130;48.740;9.132;2022-12-11T00:55:27;-2.90;99.90
8178;DHT22;4130;48.740;9.132;2022-12-11T00:57:55;-2.80;99.90
8178;DHT22;4130;48.740;9.132;2022-12-11T01:00:23;-2.80;99.90
8178;DHT22;4130;48.740;9.132;2022-12-11T01:02:50;-2.80;99.90
8178;DHT22;4130;48.740;9.132;2022-12-11T01:05:19;-2.80;99.90
8178;DHT22;4130;48.740;9.132;2022-12-11T01:07:45;-2.70;99.90
8178;DHT22;4130;48.740;9.132;2022-12-11T01:10:13;-2.60;99.90
8178;DHT22;4130;48.740;9.132;2022-12-11T01:12:48;-2.60;99.90
8178;DHT22;4130;48.740;9.132;2022-12-11T01:15:15;-2.50;99.90
8178;DHT22;4130;48.740;9.132;2022-12-11T01:17:42;-2.50;99.90
8178;DHT22;4130;48.740;9.132;2022-12-11T01:20:10;-2.50;99.90
8178;DHT22;4130;48.740;9.132;2022-12-11T01:22:39;-2.40;99.90
8178;DHT22;4130;48.740;9.132;2022-12-11T01:25:06;-2.40;99.90
8178;DHT22;4130;48.740;9.132;2022-12-11T01:27:35;-2.40;99.90
8178;DHT22;4130;48.740;9.132;2022-12-11T01:30:02;-2.30;99.90
8178;DHT22;4130;48.740;9.132;2022-12-11T01:32:29;-2.30;99.90
8178;DHT22;4130;48.740;9.132;2022-12-11T01:34:56;-2.30;99.90
8178;DHT22;4130;48.740;9.132;2022-12-11T01:37:23;-2.20;99.90
8178;DHT22;4130;48.740;9.132;2022-12-11T01:39:51;-2.20;99.90
8178;DHT22;4130;48.740;9.132;2022-12-11T01:42:19;-2.20;99.90
8178;DHT22;4130;48.740;9.132;2022-12-11T01:45:15;-2.20;99.90
8178;DHT22;4130;48.740;9.132;2022-12-11T01:47:46;-2.20;99.90
8178;DHT22;4130;48.740;9.132;2022-12-11T01:50:14;-2.10;99.90
8178;DHT22;4130;48.740;9.132;2022-12-11T01:52:42;-2.10;99.90
8178;DHT22;4130;48.740;9.132;2022-12-11T01:55:11;-2.00;99.90
8178;DHT22;4130;48.740;9.132;2022-12-11T01:57:40;-2.00;99.90
8178;DHT22;4130;48.740;9.132;2022-12-11T02:00:10;-1.90;99.90
8178;DHT22;4130;48.740;9.132;2022-12-11T02:02:37;-1.90;99.90
8178;DHT22;4130;48.740;9.132;2022-12-11T02:05:05;-1.90;99.90
8178;DHT22;4130;48.740;9.132;2022-12-11T02:07:38;-1.90;99.90
8178;DHT22;4130;48.740;9.132;2022-12-11T02:10:08;-1.90;99.90
8178;DHT22;4130;48.740;9.132;2022-12-11T02:12:42;-1.90;99.90
8178;DHT22;4130;48.740;9.132;2022-12-11T02:15:16;-1.90;99.90
8178;DHT22;4130;48.740;9.132;2022-12-11T02:17:46;-1.80;99.90
8178;DHT22;4130;48.740;9.132;2022-12-11T02:20:17;-1.80;99.90
8178;DHT22;4130;48.740;9.132;2022-12-11T02:23:09;-1.70;99.90
8178;DHT22;4130;48.740;9.132;2022-12-11T02:25:46;-1.70;99.90
8178;DHT22;4130;48.740;9.132;2022-12-11T02:28:20;-1.60;99.90
8178;DHT22;4130;48.740;9.132;2022-12-11T02:30:52;-1.60;99.90
8178;DHT22;4130;48.740;9.132;2022-12-11T02:33:29;-1.60;99.90
8178;DHT22;4130;48.740;9.132;2022-12-11T02:35:58;-1.60;99.90
8178;DHT22;4130;48.740;9.132;2022-12-11T02:38:30;-1.60;99.90
8178;DHT22;4130;48.740;9.132;2022-12-11T02:40:58;-1.60;99.90
8178;DHT22;4130;48.740;9.132;2022-12-11T02:43:28;-1.60;99.90
8178;DHT22;4130;48.740;9.132;2022-12-11T02:45:57;-1.60;99.90
8178;DHT22;4130;48.740;9.132;2022-12-11T02:48:25;-1.60;99.90
8178;DHT22;4130;48.740;9.132;2022-12-11T02:50:55;-1.50;99.90
8178;DHT22;4130;48.740;9.132;2022-12-11T02:53:25;-1.60;99.90
8178;DHT22;4130;48.740;9.132;2022-12-11T02:55:57;-1.50;99.90
8178;DHT22;4130;48.740;9.132;2022-12-11T02:58:29;-1.50;99.90
8178;DHT22;4130;48.740;9.132;2022-12-11T03:00:56;-1.50;99.90
8178;DHT22;4130;48.740;9.132;2022-12-11T03:03:24;-1.50;99.90
8178;DHT22;4130;48.740;9.132;2022-12-11T03:05:50;-1.50;99.90
8178;DHT22;4130;48.740;9.132;2022-12-11T03:08:17;-1.50;99.90
8178;DHT22;4130;48.740;9.132;2022-12-11T03:10:45;-1.50;99.90
8178;DHT22;4130;48.740;9.132;2022-12-11T03:13:14;-1.50;99.90
8178;DHT22;4130;48.740;9.132;2022-12-11T03:15:50;-1.60;99.90
8178;DHT22;4130;48.740;9.132;2022-12-11T03:18:24;-1.60;99.90
8178;DHT22;4130;48.740;9.132;2022-12-11T03:21:02;-1.60;99.90
8178;DHT22;4130;48.740;9.132;2022-12-11T03:23:33;-1.60;99.90
8178;DHT22;4130;48.740;9.132;2022-12-11T03:26:05;-1.60;99.90
8178;DHT22;4130;48.740;9.132;2022-12-11T03:28:39;-1.60;99.90
8178;DHT22;4130;48.740;9.132;2022-12-11T03:31:12;-1.60;99.90
8178;DHT22;4130;48.740;9.132;2022-12-11T03:33:42;-1.60;99.90
8178;DHT22;4130;48.740;9.132;2022-12-11T03:36:13;-1.60;99.90
8178;DHT22;4130;48.740;9.132;2022-12-11T03:38:46;-1.60;99.90
8178;DHT22;4130;48.740;9.132;2022-12-11T03:41:17;-1.70;99.90
8178;DHT22;4130;48.740;9.132;2022-12-11T03:43:45;-1.70;99.90
8178;DHT22;4130;48.740;9.132;2022-12-11T03:46:15;-1.70;99.90
8178;DHT22;4130;48.740;9.132;2022-12-11T03:48:45;-1.70;99.90
8178;DHT22;4130;48.740;9.132;2022-12-11T03:51:14;-1.70;99.90
8178;DHT22;4130;48.740;9.132;2022-12-11T03:53:42;-1.80;99.90
8178;DHT22;4130;48.740;9.132;2022-12-11T03:56:11;-1.80;99.90
8178;DHT22;4130;48.740;9.132;2022-12-11T03:58:39;-1.80;99.90
8178;DHT22;4130;48.740;9.132;2022-12-11T04:01:08;-1.80;99.90
8178;DHT22;4130;48.740;9.132;2022-12-11T04:03:36;-1.80;99.90
8178;DHT22;4130;48.740;9.132;2022-12-11T04:06:03;-1.80;99.90
8178;DHT22;4130;48.740;9.132;2022-12-11T04:08:30;-1.80;99.90
8178;DHT22;4130;48.740;9.132;2022-12-11T04:10:57;-1.80;99.90
8178;DHT22;4130;48.740;9.132;2022-12-11T04:13:42;-1.90;99.90
8178;DHT22;4130;48.740;9.132;2022-12-11T04:16:09;-1.90;99.90
8178;DHT22;4130;48.740;9.132;2022-12-11T04:18:36;-1.90;99.90
8178;DHT22;4130;48.740;9.132;2022-12-11T04:21:20;-1.90;99.90
8178;DHT22;4130;48.740;9.132;2022-12-11T04:24:05;-1.80;99.90
8178;DHT22;4130;48.740;9.132;2022-12-11T04:26:41;-1.90;99.90
8178;DHT22;4130;48.740;9.132;2022-12-11T04:29:08;-1.90;99.90
8178;DHT22;4130;48.740;9.132;2022-12-11T04:31:35;-1.90;99.90
8178;DHT22;4130;48.740;9.132;2022-12-11T04:34:04;-1.80;99.90
8178;DHT22;4130;48.740;9.132;2022-12-11T04:36:31;-1.80;99.90
8178;DHT22;4130;48.740;9.132;2022-12-11T04:38:58;-1.90;99.90
8178;DHT22;4130;48.740;9.132;2022-12-11T04:41:25;-1.90;99.90
8178;DHT22;4130;48.740;9.132;2022-12-11T04:43:52;-1.90;99.90
8178;DHT22;4130;48.740;9.132;2022-12-11T04:46:20;-1.90;99.90
8178;DHT22;4130;48.740;9.132;2022-12-11T04:48:48;-1.90;99.90
8178;DHT22;4130;48.740;9.132;2022-12-11T04:51:17;-1.90;99.90
8178;DHT22;4130;48.740;9.132;2022-12-11T04:53:44;-2.00;99.90
8178;DHT22;4130;48.740;9.132;2022-12-11T04:56:13;-2.00;99.90
8178;DHT22;4130;48.740;9.132;2022-12-11T04:58:41;-2.00;99.90
8178;DHT22;4130;48.740;9.132;2022-12-11T05:01:09;-2.00;99.90
8178;DHT22;4130;48.740;9.132;2022-12-11T05:03:37;-2.00;99.90
8178;DHT22;4130;48.740;9.132;2022-12-11T05:06:06;-2.00;99.90
8178;DHT22;4130;48.740;9.132;2022-12-11T05:08:36;-2.00;99.90
8178;DHT22;4130;48.740;9.132;2022-12-11T05:11:08;-2.00;99.90
8178;DHT22;4130;48.740;9.132;2022-12-11T05:13:35;-2.00;99.90
8178;DHT22;4130;48.740;9.132;2022-12-11T05:16:04;-2.00;99.90
8178;DHT22;4130;48.740;9.132;2022-12-11T05:18:32;-1.90;99.90
8178;DHT22;4130;48.740;9.132;2022-12-11T05:21:01;-2.00;99.90
8178;DHT22;4130;48.740;9.132;2022-12-11T05:23:29;-1.90;99.90
8178;DHT22;4130;48.740;9.132;2022-12-11T05:25:58;-1.90;99.90
8178;DHT22;4130;48.740;9.132;2022-12-11T05:28:28;-1.80;99.90
8178;DHT22;4130;48.740;9.132;2022-12-11T05:30:55;-1.80;99.90
8178;DHT22;4130;48.740;9.132;2022-12-11T05:33:22;-1.80;99.90
8178;DHT22;4130;48.740;9.132;2022-12-11T05:35:49;-1.90;99.90
8178;DHT22;4130;48.740;9.132;2022-12-11T05:38:16;-2.00;99.90
8178;DHT22;4130;48.740;9.132;2022-12-11T05:40:44;-2.10;99.90
8178;DHT22;4130;48.740;9.132;2022-12-11T05:43:12;-2.30;99.90
8178;DHT22;4130;48.740;9.132;2022-12-11T05:45:39;-2.40;99.90
8178;DHT22;4130;48.740;9.132;2022-12-11T05:48:06;-2.50;99.90
8178;DHT22;4130;48.740;9.132;2022-12-11T05:50:33;-2.60;99.90
8178;DHT22;4130;48.740;9.132;2022-12-11T05:52:59;-2.70;99.90
8178;DHT22;4130;48.740;9.132;2022-12-11T05:55:27;-2.80;99.90
8178;DHT22;4130;48.740;9.132;2022-12-11T05:57:54;-3.00;99.90
8178;DHT22;4130;48.740;9.132;2022-12-11T06:00:22;-3.10;99.90
8178;DHT22;4130;48.740;9.132;2022-12-11T06:02:49;-3.10;99.90
8178;DHT22;4130;48.740;9.132;2022-12-11T06:05:16;-3.10;99.90
8178;DHT22;4130;48.740;9.132;2022-12-11T06:07:43;-3.20;99.90
8178;DHT22;4130;48.740;9.132;2022-12-11T06:10:10;-3.20;99.90
8178;DHT22;4130;48.740;9.132;2022-12-11T06:12:36;-3.30;99.90
8178;DHT22;4130;48.740;9.132;2022-12-11T06:15:04;-3.40;99.90
8178;DHT22;4130;48.740;9.132;2022-12-11T06:17:32;-3.40;99.90
8178;DHT22;4130;48.740;9.132;2022-12-11T06:20:00;-3.50;99.90
8178;DHT22;4130;48.740;9.132;2022-12-11T06:22:27;-3.50;99.90
8178;DHT22;4130;48.740;9.132;2022-12-11T06:24:54;-3.50;99.90
8178;DHT22;4130;48.740;9.132;2022-12-11T06:27:20;-3.50;99.90
8178;DHT22;4130;48.740;9.132;2022-12-11T06:29:47;-3.50;99.90
8178;DHT22;4130;48.740;9.132;2022-12-11T06:32:14;-3.60;99.90
8178;DHT22;4130;48.740;9.132;2022-12-11T06:34:42;-3.60;99.90
8178;DHT22;4130;48.740;9.132;2022-12-11T06:37:09;-3.70;99.90
8178;DHT22;4130;48.740;9.132;2022-12-11T06:39:36;-3.70;99.90
8178;DHT22;4130;48.740;9.132;2022-12-11T06:42:03;-3.80;99.90
8178;DHT22;4130;48.740;9.132;2022-12-11T06:44:30;-3.70;99.90
8178;DHT22;4130;48.740;9.132;2022-12-11T06:46:57;-3.80;99.90
8178;DHT22;4130;48.740;9.132;2022-12-11T06:49:24;-3.80;99.90
8178;DHT22;4130;48.740;9.132;2022-12-11T06:51:52;-3.80;99.90
8178;DHT22;4130;48.740;9.132;2022-12-11T06:54:19;-3.80;99.90
8178;DHT22;4130;48.740;9.132;2022-12-11T06:56:47;-3.90;99.90
8178;DHT22;4130;48.740;9.132;2022-12-11T06:59:14;-3.80;99.90
8178;DHT22;4130;48.740;9.132;2022-12-11T07:01:41;-3.90;99.90
8178;DHT22;4130;48.740;9.132;2022-12-11T07:04:08;-3.90;99.90
8178;DHT22;4130;48.740;9.132;2022-12-11T07:06:35;-3.80;99.90
8178;DHT22;4130;48.740;9.132;2022-12-11T07:09:04;-3.80;99.90
8178;DHT22;4130;48.740;9.132;2022-12-11T07:11:31;-3.80;99.90
8178;DHT22;4130;48.740;9.132;2022-12-11T07:13:58;-3.80;99.90
8178;DHT22;4130;48.740;9.132;2022-12-11T07:16:28;-3.80;99.90
8178;DHT22;4130;48.740;9.132;2022-12-11T07:18:54;-3.90;99.90
8178;DHT22;4130;48.740;9.132;2022-12-11T07:21:21;-3.80;99.90
8178;DHT22;4130;48.740;9.132;2022-12-11T07:23:49;-3.80;99.90
8178;DHT22;4130;48.740;9.132;2022-12-11T07:26:19;-3.70;99.90
8178;DHT22;4130;48.740;9.132;2022-12-11T07:28:47;-3.70;99.90
8178;DHT22;4130;48.740;9.132;2022-12-11T07:31:15;-3.70;99.90
8178;DHT22;4130;48.740;9.132;2022-12-11T07:33:42;-3.60;99.90
8178;DHT22;4130;48.740;9.132;2022-12-11T07:36:11;-3.60;99.90
8178;DHT22;4130;48.740;9.132;2022-12-11T07:38:38;-3.50;99.90
8178;DHT22;4130;48.740;9.132;2022-12-11T07:41:07;-3.50;99.90
8178;DHT22;4130;48.740;9.132;2022-12-11T07:43:37;-3.40;99.90
8178;DHT22;4130;48.740;9.132;2022-12-11T07:46:06;-3.40;99.90
8178;DHT22;4130;48.740;9.132;2022-12-11T07:48:34;-3.30;99.90
8178;DHT22;4130;48.740;9.132;2022-12-11T07:51:09;-3.20;99.90
8178;DHT22;4130;48.740;9.132;2022-12-11T07:53:36;-3.10;99.90
8178;DHT22;4130;48.740;9.132;2022-12-11T07:56:04;-3.10;99.90
8178;DHT22;4130;48.740;9.132;2022-12-11T07:58:31;-3.00;99.90
8178;DHT22;4130;48.740;9.132;2022-12-11T08:00:59;-2.80;99.90
8178;DHT22;4130;48.740;9.132;2022-12-11T08:03:26;-2.70;99.90
8178;DHT22;4130;48.740;9.132;2022-12-11T08:05:53;-2.60;99.90
8178;DHT22;4130;48.740;9.132;2022-12-11T08:08:20;-2.50;99.90
8178;DHT22;4130;48.740;9.132;2022-12-11T08:10:47;-2.40;99.90
8178;DHT22;4130;48.740;9.132;2022-12-11T08:13:14;-2.30;99.90
8178;DHT22;4130;48.740;9.132;2022-12-11T08:15:41;-2.10;99.90
8178;DHT22;4130;48.740;9.132;2022-12-11T08:18:09;-1.90;99.90
8178;DHT22;4130;48.740;9.132;2022-12-11T08:20:37;-1.80;99.90
8178;DHT22;4130;48.740;9.132;2022-12-11T08:23:04;-1.70;99.90
8178;DHT22;4130;48.740;9.132;2022-12-11T08:25:31;-1.60;99.90
8178;DHT22;4130;48.740;9.132;2022-12-11T08:27:58;-1.50;99.90
8178;DHT22;4130;48.740;9.132;2022-12-11T08:30:25;-1.40;99.90
8178;DHT22;4130;48.740;9.132;2022-12-11T08:32:52;-1.40;99.90
8178;DHT22;4130;48.740;9.132;2022-12-11T08:35:20;-1.40;99.90
8178;DHT22;4130;48.740;9.132;2022-12-11T08:37:47;-1.30;99.90
8178;DHT22;4130;48.740;9.132;2022-12-11T08:40:14;-1.30;99.90
8178;DHT22;4130;48.740;9.132;2022-12-11T08:42:41;-1.20;99.90
8178;DHT22;4130;48.740;9.132;2022-12-11T08:45:09;-1.10;99.90
8178;DHT22;4130;48.740;9.132;2022-12-11T08:47:36;-1.10;99.90
8178;DHT22;4130;48.740;9.132;2022-12-11T08:50:04;-1.10;99.90
8178;DHT22;4130;48.740;9.132;2022-12-11T08:52:33;-1.10;99.90
8178;DHT22;4130;48.740;9.132;2022-12-11T08:55:00;-1.00;99.90
8178;DHT22;4130;48.740;9.132;2022-12-11T08:57:27;-1.00;99.90
8178;DHT22;4130;48.740;9.132;2022-12-11T08:59:54;-0.90;99.90
8178;DHT22;4130;48.740;9.132;2022-12-11T09:02:21;-1.00;99.90
8178;DHT22;4130;48.740;9.132;2022-12-11T09:04:48;-0.90;99.90
8178;DHT22;4130;48.740;9.132;2022-12-11T09:07:16;-0.70;99.90
8178;DHT22;4130;48.740;9.132;2022-12-11T09:09:44;-0.70;99.90
8178;DHT22;4130;48.740;9.132;2022-12-11T09:12:11;-0.70;99.90
8178;DHT22;4130;48.740;9.132;2022-12-11T09:14:38;-0.60;99.90
8178;DHT22;4130;48.740;9.132;2022-12-11T09:17:05;-0.50;99.90
8178;DHT22;4130;48.740;9.132;2022-12-11T09:19:33;-0.40;99.90
8178;DHT22;4130;48.740;9.132;2022-12-11T09:22:00;-0.40;99.90
8178;DHT22;4130;48.740;9.132;2022-12-11T09:24:27;-0.40;99.90
8178;DHT22;4130;48.740;9.132;2022-12-11T09:26:55;-0.30;99.90
8178;DHT22;4130;48.740;9.132;2022-12-11T09:29:22;-0.30;99.90
8178;DHT22;4130;48.740;9.132;2022-12-11T09:31:49;-0.10;99.90
8178;DHT22;4130;48.740;9.132;2022-12-11T09:34:16;0.00;99.90
8178;DHT22;4130;48.740;9.132;2022-12-11T09:36:43;0.10;99.90
8178;DHT22;4130;48.740;9.132;2022-12-11T09:39:12;0.20;99.90
8178;DHT22;4130;48.740;9.132;2022-12-11T09:41:47;0.40;99.90
8178;DHT22;4130;48.740;9.132;2022-12-11T09:44:33;0.40;99.90
8178;DHT22;4130;48.740;9.132;2022-12-11T09:47:01;0.30;99.90
8178;DHT22;4130;48.740;9.132;2022-12-11T09:49:34;0.40;99.90
8178;DHT22;4130;48.740;9.132;2022-12-11T09:52:11;0.40;99.90
8178;DHT22;4130;48.740;9.132;2022-12-11T09:54:44;0.50;99.90
8178;DHT22;4130;48.740;9.132;2022-12-11T09:57:22;0.70;99.90
8178;DHT22;4130;48.740;9.132;2022-12-11T10:00:04;0.70;99.90
8178;DHT22;4130;48.740;9.132;2022-12-11T10:02:43;0.80;99.90
8178;DHT22;4130;48.740;9.132;2022-12-11T10:05:16;0.70;99.90
8178;DHT22;4130;48.740;9.132;2022-12-11T10:07:49;0.60;99.90
8178;DHT22;4130;48.740;9.132;2022-12-11T10:10:25;0.60;99.90
8178;DHT22;4130;48.740;9.132;2022-12-11T10:13:03;0.50;99.90
8178;DHT22;4130;48.740;9.132;2022-12-11T10:15:43;0.70;99.90
8178;DHT22;4130;48.740;9.132;2022-12-11T10:18:31;0.80;99.90
8178;DHT22;4130;48.740;9.132;2022-12-11T10:21:01;0.90;99.90
8178;DHT22;4130;48.740;9.132;2022-12-11T10:23:33;1.00;99.90
8178;DHT22;4130;48.740;9.132;2022-12-11T10:26:05;0.90;99.90
8178;DHT22;4130;48.740;9.132;2022-12-11T10:28:32;1.00;99.90
8178;DHT22;4130;48.740;9.132;2022-12-11T10:31:06;1.00;99.90
8178;DHT22;4130;48.740;9.132;2022-12-11T10:33:40;1.10;99.90
8178;DHT22;4130;48.740;9.132;2022-12-11T10:36:13;1.20;99.90
8178;DHT22;4130;48.740;9.132;2022-12-11T10:38:42;1.20;99.90
8178;DHT22;4130;48.740;9.132;2022-12-11T10:41:12;1.20;99.90
8178;DHT22;4130;48.740;9.132;2022-12-11T10:43:41;1.00;99.90
8178;DHT22;4130;48.740;9.132;2022-12-11T10:46:15;1.00;99.90
8178;DHT22;4130;48.740;9.132;2022-12-11T10:48:47;0.90;99.90
8178;DHT22;4130;48.740;9.132;2022-12-11T10:51:14;1.00;99.90
8178;DHT22;4130;48.740;9.132;2022-12-11T10:53:41;0.80;99.90
8178;DHT22;4130;48.740;9.132;2022-12-11T10:56:10;0.90;99.90
8178;DHT22;4130;48.740;9.132;2022-12-11T10:58:45;1.00;99.90
8178;DHT22;4130;48.740;9.132;2022-12-11T11:01:15;1.10;99.90
8178;DHT22;4130;48.740;9.132;2022-12-11T11:03:53;1.20;99.90
8178;DHT22;4130;48.740;9.132;2022-12-11T11:06:22;1.30;99.90
8178;DHT22;4130;48.740;9.132;2022-12-11T11:08:51;1.40;99.90
8178;DHT22;4130;48.740;9.132;2022-12-11T11:11:22;1.40;99.90
8178;DHT22;4130;48.740;9.132;2022-12-11T11:13:49;1.40;99.90
8178;DHT22;4130;48.740;9.132;2022-12-11T11:16:19;1.40;99.90
8178;DHT22;4130;48.740;9.132;2022-12-11T11:18:53;1.30;99.90
8178;DHT22;4130;48.740;9.132;2022-12-11T11:21:21;1.10;99.90
8178;DHT22;4130;48.740;9.132;2022-12-11T11:23:49;1.20;99.90
8178;DHT22;4130;48.740;9.132;2022-12-11T11:26:17;1.30;99.90
8178;DHT22;4130;48.740;9.132;2022-12-11T11:28:47;1.40;99.90
8178;DHT22;4130;48.740;9.132;2022-12-11T11:31:17;1.50;99.90
8178;DHT22;4130;48.740;9.132;2022-12-11T11:33:52;1.60;99.90
8178;DHT22;4130;48.740;9.132;2022-12-11T11:36:23;1.50;99.90
8178;DHT22;4130;48.740;9.132;2022-12-11T11:39:02;1.50;99.90
8178;DHT22;4130;48.740;9.132;2022-12-11T11:41:39;1.50;99.90
8178;DHT22;4130;48.740;9.132;2022-12-11T11:44:12;1.40;99.90
8178;DHT22;4130;48.740;9.132;2022-12-11T11:46:45;1.40;99.90
8178;DHT22;4130;48.740;9.132;2022-12-11T11:49:19;1.40;99.90
8178;DHT22;4130;48.740;9.132;2022-12-11T11:51:52;1.30;99.90
8178;DHT22;4130;48.740;9.132;2022-12-11T11:54:28;1.30;99.90
8178;DHT22;4130;48.740;9.132;2022-12-11T11:56:58;1.30;99.90
8178;DHT22;4130;48.740;9.132;2022-12-11T11:59:30;1.30;99.90
8178;DHT22;4130;48.740;9.132;2022-12-11T12:02:00;1.40;99.90
8178;DHT22;4130;48.740;9.132;2022-12-11T12:04:31;1.30;99.90
8178;DHT22;4130;48.740;9.132;2022-12-11T12:07:08;1.40;99.90
8178;DHT22;4130;48.740;9.132;2022-12-11T12:09:45;1.40;99.90
8178;DHT22;4130;48.740;9.132;2022-12-11T12:12:20;1.50;99.90
8178;DHT22;4130;48.740;9.132;2022-12-11T12:15:26;1.60;99.90
8178;DHT22;4130;48.740;9.132;2022-12-11T12:17:59;1.60;99.90
8178;DHT22;4130;48.740;9.132;2022-12-11T12:20:36;1.60;99.90
8178;DHT22;4130;48.740;9.132;2022-12-11T12:26:19;1.70;99.90
8178;DHT22;4130;48.740;9.132;2022-12-11T12:28:52;1.60;99.90
8178;DHT22;4130;48.740;9.132;2022-12-11T12:31:44;1.60;99.90
8178;DHT22;4130;48.740;9.132;2022-12-11T12:34:21;1.60;99.90
8178;DHT22;4130;48.740;9.132;2022-12-11T12:36:56;1.50;99.90
8178;DHT22;4130;48.740;9.132;2022-12-11T12:39:32;1.60;99.90
8178;DHT22;4130;48.740;9.132;2022-12-11T12:42:09;1.70;99.90
8178;DHT22;4130;48.740;9.132;2022-12-11T12:44:43;1.70;99.90
8178;DHT22;4130;48.740;9.132;2022-12-11T12:47:14;1.60;99.90
8178;DHT22;4130;48.740;9.132;2022-12-11T12:49:46;1.60;99.90
8178;DHT22;4130;48.740;9.132;2022-12-11T12:52:16;1.60;99.90
8178;DHT22;4130;48.740;9.132;2022-12-11T12:54:45;1.50;99.90
8178;DHT22;4130;48.740;9.132;2022-12-11T12:57:34;1.40;99.90
8178;DHT22;4130;48.740;9.132;2022-12-11T13:00:04;1.30;99.90
8178;DHT22;4130;48.740;9.132;2022-12-11T13:02:32;1.10;99.90
8178;DHT22;4130;48.740;9.132;2022-12-11T13:05:14;1.00;99.90
8178;DHT22;4130;48.740;9.132;2022-12-11T13:07:48;1.10;99.90
8178;DHT22;4130;48.740;9.132;2022-12-11T13:10:32;1.10;99.90
8178;DHT22;4130;48.740;9.132;2022-12-11T13:13:02;1.00;99.90
8178;DHT22;4130;48.740;9.132;2022-12-11T13:15:35;1.00;99.90
8178;DHT22;4130;48.740;9.132;2022-12-11T13:20:51;1.20;99.90
8178;DHT22;4130;48.740;9.132;2022-12-11T13:23:24;1.30;99.90
8178;DHT22;4130;48.740;9.132;2022-12-11T13:25:54;1.40;99.90
8178;DHT22;4130;48.740;9.132;2022-12-11T13:28:30;1.40;99.90
8178;DHT22;4130;48.740;9.132;2022-12-11T13:31:27;1.40;99.90
8178;DHT22;4130;48.740;9.132;2022-12-11T13:33:56;1.40;99.90
8178;DHT22;4130;48.740;9.132;2022-12-11T13:36:30;1.40;99.90
8178;DHT22;4130;48.740;9.132;2022-12-11T13:39:01;1.40;99.90
8178;DHT22;4130;48.740;9.132;2022-12-11T13:41:29;1.30;99.90
8178;DHT22;4130;48.740;9.132;2022-12-11T13:43:59;1.20;99.90
8178;DHT22;4130;48.740;9.132;2022-12-11T13:46:28;0.90;99.90
8178;DHT22;4130;48.740;9.132;2022-12-11T13:48:58;0.70;99.90
8178;DHT22;4130;48.740;9.132;2022-12-11T13:51:30;0.60;99.90
8178;DHT22;4130;48.740;9.132;2022-12-11T13:54:22;0.40;99.90
8178;DHT22;4130;48.740;9.132;2022-12-11T13:56:57;0.20;99.90
8178;DHT22;4130;48.740;9.132;2022-12-11T13:59:27;0.00;99.90
8178;DHT22;4130;48.740;9.132;2022-12-11T14:01:57;-0.10;99.90
8178;DHT22;4130;48.740;9.132;2022-12-11T14:04:26;-0.30;99.90
8178;DHT22;4130;48.740;9.132;2022-12-11T14:06:56;-0.40;99.90
8178;DHT22;4130;48.740;9.132;2022-12-11T14:09:25;-0.50;99.90
8178;DHT22;4130;48.740;9.132;2022-12-11T14:11:53;-0.60;99.90
8178;DHT22;4130;48.740;9.132;2022-12-11T14:14:28;-0.70;99.90
8178;DHT22;4130;48.740;9.132;2022-12-11T14:16:59;-0.70;99.90
8178;DHT22;4130;48.740;9.132;2022-12-11T14:19:26;-0.80;99.90
8178;DHT22;4130;48.740;9.132;2022-12-11T14:21:58;-0.80;99.90
8178;DHT22;4130;48.740;9.132;2022-12-11T14:24:25;-0.80;99.90
8178;DHT22;4130;48.740;9.132;2022-12-11T14:26:53;-0.80;99.90
8178;DHT22;4130;48.740;9.132;2022-12-11T14:29:27;-0.70;99.90
8178;DHT22;4130;48.740;9.132;2022-12-11T14:31:58;-0.60;99.90
8178;DHT22;4130;48.740;9.132;2022-12-11T14:34:30;-0.60;99.90
8178;DHT22;4130;48.740;9.132;2022-12-11T14:37:02;-0.50;99.90
8178;DHT22;4130;48.740;9.132;2022-12-11T14:39:34;-0.50;99.90
8178;DHT22;4130;48.740;9.132;2022-12-11T14:42:04;-0.50;99.90
8178;DHT22;4130;48.740;9.132;2022-12-11T14:44:36;-0.50;99.90
8178;DHT22;4130;48.740;9.132;2022-12-11T14:47:10;-0.60;99.90
8178;DHT22;4130;48.740;9.132;2022-12-11T14:49:43;-0.70;99.90
8178;DHT22;4130;48.740;9.132;2022-12-11T14:52:16;-0.80;99.90
8178;DHT22;4130;48.740;9.132;2022-12-11T14:54:46;-0.90;99.90
8178;DHT22;4130;48.740;9.132;2022-12-11T14:57:19;-1.00;99.90
8178;DHT22;4130;48.740;9.132;2022-12-11T14:59:48;-1.10;99.90
8178;DHT22;4130;48.740;9.132;2022-12-11T15:02:25;-1.20;99.90
8178;DHT22;4130;48.740;9.132;2022-12-11T15:05:10;-1.30;99.90
8178;DHT22;4130;48.740;9.132;2022-12-11T15:07:40;-1.30;99.90
8178;DHT22;4130;48.740;9.132;2022-12-11T15:10:25;-1.40;99.90
8178;DHT22;4130;48.740;9.132;2022-12-11T15:12:53;-1.50;99.90
8178;DHT22;4130;48.740;9.132;2022-12-11T15:15:20;-1.60;99.90
8178;DHT22;4130;48.740;9.132;2022-12-11T15:17:48;-1.60;99.90
8178;DHT22;4130;48.740;9.132;2022-12-11T15:20:22;-1.70;99.90
8178;DHT22;4130;48.740;9.132;2022-12-11T15:22:52;-1.70;99.90
8178;DHT22;4130;48.740;9.132;2022-12-11T15:25:21;-1.70;99.90
8178;DHT22;4130;48.740;9.132;2022-12-11T15:27:52;-1.70;99.90
8178;DHT22;4130;48.740;9.132;2022-12-11T15:30:30;-1.70;99.90
8178;DHT22;4130;48.740;9.132;2022-12-11T15:33:14;-1.80;99.90
8178;DHT22;4130;48.740;9.132;2022-12-11T15:35:56;-1.80;99.90
8178;DHT22;4130;48.740;9.132;2022-12-11T15:38:30;-1.80;99.90
8178;DHT22;4130;48.740;9.132;2022-12-11T15:40:58;-1.90;99.90
8178;DHT22;4130;48.740;9.132;2022-12-11T15:43:25;-1.90;99.90
8178;DHT22;4130;48.740;9.132;2022-12-11T15:45:52;-1.90;99.90
8178;DHT22;4130;48.740;9.132;2022-12-11T15:48:19;-1.90;99.90
8178;DHT22;4130;48.740;9.132;2022-12-11T15:50:46;-1.90;99.90
8178;DHT22;4130;48.740;9.132;2022-12-11T15:53:13;-1.80;99.90
8178;DHT22;4130;48.740;9.132;2022-12-11T15:55:42;-1.80;99.90
8178;DHT22;4130;48.740;9.132;2022-12-11T15:58:14;-1.80;99.90
8178;DHT22;4130;48.740;9.132;2022-12-11T16:00:41;-1.90;99.90
8178;DHT22;4130;48.740;9.132;2022-12-11T16:03:10;-1.90;99.90
8178;DHT22;4130;48.740;9.132;2022-12-11T16:05:38;-1.80;99.90
8178;DHT22;4130;48.740;9.132;2022-12-11T16:08:06;-1.70;99.90
8178;DHT22;4130;48.740;9.132;2022-12-11T16:10:33;-1.60;99.90
8178;DHT22;4130;48.740;9.132;2022-12-11T16:13:01;-1.50;99.90
8178;DHT22;4130;48.740;9.132;2022-12-11T16:15:28;-1.40;99.90
8178;DHT22;4130;48.740;9.132;2022-12-11T16:18:00;-1.40;99.90
8178;DHT22;4130;48.740;9.132;2022-12-11T16:20:27;-1.30;99.90
8178;DHT22;4130;48.740;9.132;2022-12-11T16:22:55;-1.30;99.90
8178;DHT22;4130;48.740;9.132;2022-12-11T16:25:24;-1.30;99.90
8178;DHT22;4130;48.740;9.132;2022-12-11T16:27:55;-1.30;99.90
8178;DHT22;4130;48.740;9.132;2022-12-11T16:30:24;-1.40;99.90